Time;durP1;ratioP1;P1;durP2;ratioP2;P2;SDS_P1;SDS_P2;PMS_P1;PMS_P2;Temp;Humidity;BMP_temperature;BMP_pressure;BME280_temperature;BME280_humidity;BME280_pressure;Samples;Min_cycle;Max_cycle;Signal;HPM_P1;HPM_P2
2021/04/25 00:00:10;;;;;;;;;;;;;;;;;;5043707;28;19923;-86
2021/04/25 00:02:36;;;;;;;;;;;;;;;;;;5041483;28;20012;-85
2021/04/25 00:05:03;;;;;;;;;;;;;;;;;;5041901;28;20019;-84
2021/04/25 00:07:30;;;;;;;;;;;;;;;;;;5041750;28;19969;-86
2021/04/25 00:09:56;;;;;;;;;;;;;;;;;;5042087;28;19941;-86
2021/04/25 00:12:22;;;;;;;;;;;;;;;;;;5041563;28;19912;-85
2021/04/25 00:14:47;;;;;;;;;;;;;;;;;;5041698;28;19919;-85
2021/04/25 00:17:12;;;;;;;;;;;;;;;;;;5041722;28;19919;-85
2021/04/25 00:19:37;;;;;;;;;;;;;;;;;;5041757;28;19918;-85
2021/04/25 00:22:03;;;;;;;;;;;;;;;;;;5041842;28;19911;-86
2021/04/25 00:24:28;;;;;;;;;;;;;;;;;;5028045;28;19963;-85
2021/04/25 00:26:54;;;;;;;;;;;;;;;;;;5038893;28;19913;-85
2021/04/25 00:29:20;;;;;;;;;;;;;;;;;;5040294;28;19916;-85
2021/04/25 00:31:46;;;;;;;;;;;;;;;;;;5053112;28;19942;-86
2021/04/25 00:34:15;;;;;;;;;;;;;;;;;;5041989;28;19916;-86
2021/04/25 00:36:40;;;;;;;;;;;;;;;;;;5042169;28;19924;-85
2021/04/25 00:39:06;;;;;;;;;;;;;;;;;;5042224;28;19916;-86
2021/04/25 00:41:34;;;;;;;;;;;;;;;;;;5041940;28;19919;-86
2021/04/25 00:44:01;;;;;;;;;;;;;;;;;;5042348;28;20370;-85
2021/04/25 00:46:29;;;;;;;;;;;;;;;;;;5042279;28;19919;-85
2021/04/25 00:48:56;;;;;;;;;;;;;;;;;;5041941;28;19958;-85
2021/04/25 00:51:22;;;;;;;;;;;;;;;;;;5058569;28;19917;-84
2021/04/25 00:53:49;;;;;;;;;;;;;;;;;;5041269;28;20003;-85
2021/04/25 00:56:16;;;;;;;;;;;;;;;;;;5040835;28;20018;-85
2021/04/25 00:58:45;;;;;;;;;;;;;;;;;;5041660;28;20201;-85
2021/04/25 01:01:12;;;;;;;;;;;;;;;;;;5045827;28;19939;-86
2021/04/25 01:03:38;;;;;;;;;;;;;;;;;;5063639;28;19923;-86
2021/04/25 01:06:04;;;;;;;;;;;;;;;;;;5045422;28;19999;-86
2021/04/25 01:08:30;;;;;;;;;;;;;;;;;;5061839;28;19962;-86
2021/04/25 01:10:55;;;;;;;;;;;;;;;;;;5044281;28;19959;-85
2021/04/25 01:13:20;;;;;;;;;;;;;;;;;;5045080;28;19916;-86
2021/04/25 01:15:47;;;;;;;;;;;;;;;;;;5044947;28;19958;-86
2021/04/25 01:18:12;;;;;;;;;;;;;;;;;;5044911;28;19918;-86
2021/04/25 01:20:37;;;;;;;;;;;;;;;;;;5045018;28;19912;-86
2021/04/25 01:23:04;;;;;;;;;;;;;;;;;;5044863;28;19955;-86
2021/04/25 01:25:30;;;;;;;;;;;;;;;;;;5040103;28;19955;-86
2021/04/25 01:27:58;;;;;;;;;;;;;;;;;;5024868;28;19962;-86
2021/04/25 01:30:25;;;;;;;;;;;;;;;;;;5041792;28;20362;-86
2021/04/25 01:32:50;;;;;;;;;;;;;;;;;;5041046;28;19963;-86
2021/04/25 01:35:21;;;;;;;;;;;;;;;;;;5061170;28;19955;-86
2021/04/25 01:37:48;;;;;;;;;;;;;;;;;;5044379;28;19923;-86
2021/04/25 01:40:15;;;;;;;;;;;;;;;;;;5044677;28;19938;-86
2021/04/25 01:42:40;;;;;;;;;;;;;;;;;;5061089;28;20445;-86
2021/04/25 01:45:15;;;;;;;;;;;;;;;;;;5046251;28;19913;-86
2021/04/25 01:47:41;;;;;;;;;;;;;;;;;;5057681;28;19970;-84
2021/04/25 01:50:07;;;;;;;;;;;;;;;;;;5041109;28;19913;-86
2021/04/25 01:52:32;;;;;;;;;;;;;;;;;;5040306;28;19917;-86
2021/04/25 01:54:58;;;;;;;;;;;;;;;;;;5024047;28;20393;-85
2021/04/25 01:57:24;;;;;;;;;;;;;;;;;;5040703;28;19923;-86
2021/04/25 01:59:50;;;;;;;;;;;;;;;;;;5048468;28;19955;-86
2021/04/25 02:02:15;;;;;;;;;;;;;;;;;;5040387;28;19928;-86
2021/04/25 02:04:43;;;;;;;;;;;;;;;;;;5040668;28;19917;-85
2021/04/25 02:07:09;;;;;;;;;;;;;;;;;;5039470;28;19916;-86
2021/04/25 02:09:35;;;;;;;;;;;;;;;;;;5040637;28;19912;-86
2021/04/25 02:12:03;;;;;;;;;;;;;;;;;;5040347;28;19917;-86
2021/04/25 02:14:29;;;;;;;;;;;;;;;;;;5050604;28;19919;-84
2021/04/25 02:16:55;;;;;;;;;;;;;;;;;;5023768;28;19920;-86
2021/04/25 02:19:21;;;;;;;;;;;;;;;;;;5023828;28;19923;-85
2021/04/25 02:21:46;;;;;;;;;;;;;;;;;;5023187;28;19920;-85
2021/04/25 02:24:14;;;;;;;;;;;;;;;;;;5040069;28;19913;-85
2021/04/25 02:26:40;;;;;;;;;;;;;;;;;;5023810;28;20378;-86
2021/04/25 02:29:08;;;;;;;;;;;;;;;;;;5025338;28;20409;-85
2021/04/25 02:31:35;;;;;;;;;;;;;;;;;;5056844;28;19912;-85
2021/04/25 02:34:00;;;;;;;;;;;;;;;;;;5040009;28;19926;-85
2021/04/25 02:36:25;;;;;;;;;;;;;;;;;;5039960;28;20003;-85
2021/04/25 02:38:51;;;;;;;;;;;;;;;;;;5039918;28;19955;-86
2021/04/25 02:41:17;;;;;;;;;;;;;;;;;;5023225;28;19920;-86
2021/04/25 02:43:42;;;;;;;;;;;;;;;;;;5055426;28;20378;-86
2021/04/25 02:46:09;;;;;;;;;;;;;;;;;;5040069;28;19920;-86
2021/04/25 02:48:35;;;;;;;;;;;;;;;;;;5056748;28;19912;-86
2021/04/25 02:51:00;;;;;;;;;;;;;;;;;;5042323;28;19916;-86
2021/04/25 02:53:26;;;;;;;;;;;;;;;;;;5076443;28;19927;-85
2021/04/25 02:55:52;;;;;;;;;;;;;;;;;;5043074;28;19912;-85
2021/04/25 02:58:18;;;;;;;;;;;;;;;;;;5042763;28;20282;-86
2021/04/25 03:00:44;;;;;;;;;;;;;;;;;;5055117;28;19920;-85
2021/04/25 03:03:11;;;;;;;;;;;;;;;;;;5039526;28;19942;-86
2021/04/25 03:05:37;;;;;;;;;;;;;;;;;;5024471;28;19917;-86
2021/04/25 03:08:05;;;;;;;;;;;;;;;;;;5055884;28;20366;-86
2021/04/25 03:10:33;;;;;;;;;;;;;;;;;;5039624;28;20286;-86
2021/04/25 03:12:58;;;;;;;;;;;;;;;;;;5022664;28;20251;-86
2021/04/25 03:15:23;;;;;;;;;;;;;;;;;;5022815;28;19966;-86
2021/04/25 03:17:52;;;;;;;;;;;;;;;;;;5022730;28;19975;-86
2021/04/25 03:20:19;;;;;;;;;;;;;;;;;;5023218;28;20428;-86
2021/04/25 03:22:45;;;;;;;;;;;;;;;;;;5054970;28;20354;-86
2021/04/25 03:25:13;;;;;;;;;;;;;;;;;;5070727;28;19969;-86
2021/04/25 03:27:39;;;;;;;;;;;;;;;;;;5062543;28;19911;-86
2021/04/25 03:30:05;;;;;;;;;;;;;;;;;;5046843;28;19917;-86
2021/04/25 03:32:31;;;;;;;;;;;;;;;;;;5022330;28;19917;-86
2021/04/25 03:34:58;;;;;;;;;;;;;;;;;;5055621;28;19961;-85
2021/04/25 03:37:23;;;;;;;;;;;;;;;;;;5038854;28;19917;-86
2021/04/25 03:39:51;;;;;;;;;;;;;;;;;;5038594;28;20007;-87
2021/04/25 03:42:19;;;;;;;;;;;;;;;;;;5055442;28;19912;-86
2021/04/25 03:44:44;;;;;;;;;;;;;;;;;;5055521;28;19924;-85
2021/04/25 03:47:09;;;;;;;;;;;;;;;;;;5049445;28;19924;-86
2021/04/25 03:49:36;;;;;;;;;;;;;;;;;;5038597;28;19917;-86
2021/04/25 03:52:01;;;;;;;;;;;;;;;;;;5038744;28;19926;-86
2021/04/25 03:54:27;;;;;;;;;;;;;;;;;;5038273;28;20015;-85
2021/04/25 03:56:52;;;;;;;;;;;;;;;;;;5038301;28;19919;-86
2021/04/25 03:59:18;;;;;;;;;;;;;;;;;;5041358;28;19920;-86
2021/04/25 04:01:43;;;;;;;;;;;;;;;;;;5058212;28;19912;-86
2021/04/25 04:04:09;;;;;;;;;;;;;;;;;;5044400;28;19948;-86
2021/04/25 04:06:35;;;;;;;;;;;;;;;;;;5038227;28;20439;-86
2021/04/25 04:09:00;;;;;;;;;;;;;;;;;;5038292;28;19917;-85
2021/04/25 04:11:25;;;;;;;;;;;;;;;;;;5038366;28;19995;-86
2021/04/25 04:13:50;;;;;;;;;;;;;;;;;;5038577;28;19920;-86
2021/04/25 04:16:18;;;;;;;;;;;;;;;;;;5055051;28;19966;-86
2021/04/25 04:18:43;;;;;;;;;;;;;;;;;;5041307;28;19916;-85
2021/04/25 04:21:10;;;;;;;;;;;;;;;;;;5058370;28;19912;-86
2021/04/25 04:23:36;;;;;;;;;;;;;;;;;;5055658;28;19912;-86
2021/04/25 04:26:01;;;;;;;;;;;;;;;;;;5022105;28;19916;-85
2021/04/25 04:28:27;;;;;;;;;;;;;;;;;;5021929;28;19912;-86
2021/04/25 04:30:53;;;;;;;;;;;;;;;;;;5053807;28;19955;-86
2021/04/25 04:33:18;;;;;;;;;;;;;;;;;;5041394;28;19959;-86
2021/04/25 04:35:44;;;;;;;;;;;;;;;;;;5058508;28;20264;-86
2021/04/25 04:38:09;;;;;;;;;;;;;;;;;;5058100;28;19920;-86
2021/04/25 04:40:35;;;;;;;;;;;;;;;;;;5041602;28;19919;-86
2021/04/25 04:43:01;;;;;;;;;;;;;;;;;;5041474;28;20018;-86
2021/04/25 04:45:26;;;;;;;;;;;;;;;;;;5057989;28;20006;-86
2021/04/25 04:47:53;;;;;;;;;;;;;;;;;;5055258;28;19921;-86
2021/04/25 04:50:20;;;;;;;;;;;;;;;;;;5021723;28;19913;-86
2021/04/25 04:52:46;;;;;;;;;;;;;;;;;;5021426;28;19958;-86
2021/04/25 04:55:13;;;;;;;;;;;;;;;;;;5037696;28;19959;-86
2021/04/25 04:57:40;;;;;;;;;;;;;;;;;;5021400;28;20043;-86
2021/04/25 05:00:09;;;;;;;;;;;;;;;;;;5021538;28;19920;-84
2021/04/25 05:02:35;;;;;;;;;;;;;;;;;;5054460;28;19916;-86
2021/04/25 05:05:00;;;;;;;;;;;;;;;;;;5038210;28;19924;-86
2021/04/25 05:07:27;;;;;;;;;;;;;;;;;;5021196;28;19912;-86
2021/04/25 05:09:52;;;;;;;;;;;;;;;;;;5021304;28;19913;-86
2021/04/25 05:12:19;;;;;;;;;;;;;;;;;;5021229;28;19962;-86
2021/04/25 05:14:46;;;;;;;;;;;;;;;;;;5024628;28;19917;-86
2021/04/25 05:17:12;;;;;;;;;;;;;;;;;;5041105;28;19920;-86
2021/04/25 05:19:38;;;;;;;;;;;;;;;;;;5041325;28;19912;-85
2021/04/25 05:22:05;;;;;;;;;;;;;;;;;;5041401;28;19912;-85
2021/04/25 05:24:30;;;;;;;;;;;;;;;;;;5057895;28;19920;-86
2021/04/25 05:26:56;;;;;;;;;;;;;;;;;;5040973;28;19920;-84
2021/04/25 05:29:22;;;;;;;;;;;;;;;;;;5041589;28;19968;-85
2021/04/25 05:31:47;;;;;;;;;;;;;;;;;;5023948;28;19916;-85
2021/04/25 05:34:13;;;;;;;;;;;;;;;;;;5024828;28;20381;-85
2021/04/25 05:36:38;;;;;;;;;;;;;;;;;;5024127;28;19916;-85
2021/04/25 05:39:05;;;;;;;;;;;;;;;;;;5040743;28;19923;-85
2021/04/25 05:41:32;;;;;;;;;;;;;;;;;;5040325;28;20039;-84
2021/04/25 05:43:57;;;;;;;;;;;;;;;;;;5035517;28;19916;-84
2021/04/25 05:46:22;;;;;;;;;;;;;;;;;;5056042;28;19924;-84
2021/04/25 05:48:49;;;;;;;;;;;;;;;;;;5067136;28;19919;-83
2021/04/25 05:51:14;;;;;;;;;;;;;;;;;;5078735;28;20389;-85
2021/04/25 05:53:39;;;;;;;;;;;;;;;;;;5076945;28;19920;-87
2021/04/25 05:56:05;;;;;;;;;;;;;;;;;;5076736;28;19912;-84
2021/04/25 05:58:30;;;;;;;;;;;;;;;;;;5060369;28;19980;-84
2021/04/25 06:00:55;;;;;;;;;;;;;;;;;;5059684;28;19944;-84
2021/04/25 06:03:21;;;;;;;;;;;;;;;;;;5060058;28;19916;-84
2021/04/25 06:05:46;;;;;;;;;;;;;;;;;;5076936;28;19925;-84
2021/04/25 06:08:12;;;;;;;;;;;;;;;;;;5059621;28;20373;-84
2021/04/25 06:10:37;;;;;;;;;;;;;;;;;;5077023;28;19916;-85
2021/04/25 06:13:02;;;;;;;;;;;;;;;;;;5076157;28;19916;-85
2021/04/25 06:15:29;;;;;;;;;;;;;;;;;;5059613;28;20014;-85
2021/04/25 06:17:54;;;;;;;;;;;;;;;;;;5059896;28;19912;-85
2021/04/25 06:20:19;;;;;;;;;;;;;;;;;;5075526;28;20388;-85
2021/04/25 06:22:45;;;;;;;;;;;;;;;;;;5054790;28;20421;-85
2021/04/25 06:25:13;;;;;;;;;;;;;;;;;;5054275;28;20288;-87
2021/04/25 06:27:38;;;;;;;;;;;;;;;;;;5062334;28;19937;-88
2021/04/25 06:30:04;;;;;;;;;;;;;;;;;;5080280;28;19912;-87
2021/04/25 06:32:29;;;;;;;;;;;;;;;;;;5063550;28;19937;-88
2021/04/25 06:34:55;;;;;;;;;;;;;;;;;;5080228;28;19912;-87
2021/04/25 06:37:21;;;;;;;;;;;;;;;;;;5051701;28;19925;-88
2021/04/25 06:39:47;;;;;;;;;;;;;;;;;;5043484;28;19916;-88
2021/04/25 06:42:12;;;;;;;;;;;;;;;;;;5042931;28;19919;-88
2021/04/25 06:44:38;;;;;;;;;;;;;;;;;;5059998;28;19912;-88
2021/04/25 06:47:04;;;;;;;;;;;;;;;;;;5043257;28;20007;-88
2021/04/25 06:49:29;;;;;;;;;;;;;;;;;;5060046;28;19919;-87
2021/04/25 06:51:57;;;;;;;;;;;;;;;;;;5059661;28;19912;-88
2021/04/25 06:54:24;;;;;;;;;;;;;;;;;;5039570;28;19916;-89
2021/04/25 06:56:50;;;;;;;;;;;;;;;;;;5042701;28;19967;-89
2021/04/25 06:59:16;;;;;;;;;;;;;;;;;;5043468;28;19917;-91
2021/04/25 07:01:42;;;;;;;;;;;;;;;;;;5060051;28;19919;-91
2021/04/25 07:04:07;;;;;;;;;;;;;;;;;;5043365;28;19954;-89
2021/04/25 07:06:33;;;;;;;;;;;;;;;;;;5043048;28;19959;-90
2021/04/25 07:09:01;;;;;;;;;;;;;;;;;;5042811;28;19973;-90
2021/04/25 07:11:26;;;;;;;;;;;;;;;;;;5043088;28;19916;-88
2021/04/25 07:13:52;;;;;;;;;;;;;;;;;;5043371;28;19973;-89
2021/04/25 07:16:18;;;;;;;;;;;;;;;;;;5043114;28;19919;-90
2021/04/25 07:18:44;;;;;;;;;;;;;;;;;;5042910;28;19912;-88
2021/04/25 07:21:09;;;;;;;;;;;;;;;;;;5039483;28;19951;-89
2021/04/25 07:23:38;;;;;;;;;;;;;;;;;;5059100;28;19962;-89
2021/04/25 07:26:08;;;;;;;;;;;;;;;;;;5043083;28;19912;-89
2021/04/25 07:28:39;;;;;;;;;;;;;;;;;;5043170;28;19919;-89
2021/04/25 07:31:07;;;;;;;;;;;;;;;;;;5042908;28;19918;-89
2021/04/25 07:33:36;;;;;;;;;;;;;;;;;;5042732;28;20271;-89
2021/04/25 07:36:03;;;;;;;;;;;;;;;;;;5042639;28;19955;-89
2021/04/25 07:38:29;;;;;;;;;;;;;;;;;;5042339;28;19966;-89
2021/04/25 07:40:58;;;;;;;;;;;;;;;;;;5042348;28;20270;-89
2021/04/25 07:43:24;;;;;;;;;;;;;;;;;;5042597;28;19912;-89
2021/04/25 07:45:49;;;;;;;;;;;;;;;;;;5042489;28;19912;-90
2021/04/25 07:48:18;;;;;;;;;;;;;;;;;;5059693;28;19912;-90
2021/04/25 07:50:44;;;;;;;;;;;;;;;;;;5059238;28;20270;-84
2021/04/25 07:53:09;;;;;;;;;;;;;;;;;;5040931;28;19923;-81
2021/04/25 07:55:35;;;;;;;;;;;;;;;;;;5057271;28;19912;-81
2021/04/25 07:58:00;;;;;;;;;;;;;;;;;;5057588;28;19920;-81
2021/04/25 08:00:25;;;;;;;;;;;;;;;;;;5040792;28;19916;-80
2021/04/25 08:02:51;;;;;;;;;;;;;;;;;;5057464;28;19916;-82
2021/04/25 08:05:16;;;;;;;;;;;;;;;;;;5074011;28;19916;-81
2021/04/25 08:07:41;;;;;;;;;;;;;;;;;;5074027;28;19939;-82
2021/04/25 08:10:07;;;;;;;;;;;;;;;;;;5074085;28;19919;-82
2021/04/25 08:12:32;;;;;;;;;;;;;;;;;;5057455;28;19916;-82
2021/04/25 08:14:57;;;;;;;;;;;;;;;;;;5074928;28;19981;-81
2021/04/25 08:17:23;;;;;;;;;;;;;;;;;;5074568;28;20320;-81
2021/04/25 08:19:48;;;;;;;;;;;;;;;;;;5054194;28;19919;-82
2021/04/25 08:22:13;;;;;;;;;;;;;;;;;;5056424;28;19920;-81
2021/04/25 08:24:41;;;;;;;;;;;;;;;;;;5055045;28;20281;-81
2021/04/25 08:27:06;;;;;;;;;;;;;;;;;;5073806;28;19912;-82
2021/04/25 08:29:32;;;;;;;;;;;;;;;;;;5074404;28;19938;-82
2021/04/25 08:31:57;;;;;;;;;;;;;;;;;;5057968;28;19950;-82
2021/04/25 08:34:22;;;;;;;;;;;;;;;;;;5057194;28;19912;-82
2021/04/25 08:36:48;;;;;;;;;;;;;;;;;;5056953;28;20015;-81
2021/04/25 08:39:13;;;;;;;;;;;;;;;;;;5056702;28;19931;-82
2021/04/25 08:41:39;;;;;;;;;;;;;;;;;;5057356;28;19912;-82
2021/04/25 08:44:04;;;;;;;;;;;;;;;;;;5040800;28;19912;-82
2021/04/25 08:46:30;;;;;;;;;;;;;;;;;;5073944;28;19923;-82
2021/04/25 08:48:56;;;;;;;;;;;;;;;;;;5047818;28;19920;-81
2021/04/25 08:51:21;;;;;;;;;;;;;;;;;;5085442;28;19919;-81
2021/04/25 08:53:46;;;;;;;;;;;;;;;;;;5085854;28;19915;-80
2021/04/25 08:56:12;;;;;;;;;;;;;;;;;;5053594;28;19916;-81
2021/04/25 08:58:37;;;;;;;;;;;;;;;;;;5092094;28;20266;-78
2021/04/25 09:01:03;;;;;;;;;;;;;;;;;;5097883;28;20010;-79
2021/04/25 09:03:28;;;;;;;;;;;;;;;;;;5097642;28;19924;-81
2021/04/25 09:05:58;;;;;;;;;;;;;;;;;;5080569;28;19947;-80
2021/04/25 09:08:23;;;;;;;;;;;;;;;;;;5098021;28;19923;-79
2021/04/25 09:10:52;;;;;;;;;;;;;;;;;;5080354;28;19911;-80
2021/04/25 09:13:18;;;;;;;;;;;;;;;;;;5080873;28;19957;-79
2021/04/25 09:15:43;;;;;;;;;;;;;;;;;;5097856;28;19918;-78
2021/04/25 09:18:09;;;;;;;;;;;;;;;;;;5097680;28;19912;-79
2021/04/25 09:20:45;;;;;;;;;;;;;;;;;;5077484;28;20019;-79
2021/04/25 09:23:29;;;;;;;;;;;;;;;;;;5040299;28;20386;-79
2021/04/25 09:25:55;;;;;;;;;;;;;;;;;;5024078;28;19916;-79
2021/04/25 09:28:21;;;;;;;;;;;;;;;;;;5023938;28;20419;-79
2021/04/25 09:30:54;;;;;;;;;;;;;;;;;;5040294;28;19912;-80
2021/04/25 09:33:19;;;;;;;;;;;;;;;;;;5036700;28;19916;-80
2021/04/25 09:35:45;;;;;;;;;;;;;;;;;;5023731;28;19916;-80
2021/04/25 09:38:11;;;;;;;;;;;;;;;;;;5056406;28;19967;-80
2021/04/25 09:40:41;;;;;;;;;;;;;;;;;;5057166;28;19919;-80
2021/04/25 09:43:07;;;;;;;;;;;;;;;;;;5040279;28;19962;-80
2021/04/25 09:45:33;;;;;;;;;;;;;;;;;;5039830;28;20007;-80
2021/04/25 09:47:59;;;;;;;;;;;;;;;;;;5056744;28;20066;-80
2021/04/25 09:50:25;;;;;;;;;;;;;;;;;;5056827;28;19958;-80
2021/04/25 09:52:51;;;;;;;;;;;;;;;;;;5040075;28;19920;-81
2021/04/25 09:55:16;;;;;;;;;;;;;;;;;;5023508;28;19917;-80
2021/04/25 09:57:42;;;;;;;;;;;;;;;;;;5056420;28;19913;-81
2021/04/25 10:00:07;;;;;;;;;;;;;;;;;;5040046;28;20313;-81
2021/04/25 10:02:36;;;;;;;;;;;;;;;;;;5055423;28;20003;-81
2021/04/25 10:05:05;;;;;;;;;;;;;;;;;;5056217;28;19916;-80
2021/04/25 10:07:34;;;;;;;;;;;;;;;;;;5039347;28;20317;-80
2021/04/25 10:10:09;;;;;;;;;;;;;;;;;;5043283;28;19916;-81
2021/04/25 10:12:34;;;;;;;;;;;;;;;;;;5055894;28;20328;-80
2021/04/25 10:15:00;;;;;;;;;;;;;;;;;;5039671;28;19920;-80
2021/04/25 10:17:25;;;;;;;;;;;;;;;;;;5056514;28;19916;-80
2021/04/25 10:19:50;;;;;;;;;;;;;;;;;;5055759;28;19917;-80
2021/04/25 10:22:18;;;;;;;;;;;;;;;;;;5041291;28;19940;-80
2021/04/25 10:24:43;;;;;;;;;;;;;;;;;;5047602;28;19918;-80
2021/04/25 10:27:09;;;;;;;;;;;;;;;;;;5039257;28;19912;-80
2021/04/25 10:29:38;;;;;;;;;;;;;;;;;;5072882;28;19957;-80
2021/04/25 10:32:03;;;;;;;;;;;;;;;;;;5055661;28;19912;-80
2021/04/25 10:34:29;;;;;;;;;;;;;;;;;;5055770;28;19919;-80
2021/04/25 10:36:57;;;;;;;;;;;;;;;;;;5072848;28;19916;-79
2021/04/25 10:39:38;;;;;;;;;;;;;;;;;;5055401;28;19916;-79
2021/04/25 10:42:15;;;;;;;;;;;;;;;;;;5073752;28;19965;-80
2021/04/25 10:44:56;;;;;;;;;;;;;;;;;;5039229;28;20016;-80
2021/04/25 10:47:21;;;;;;;;;;;;;;;;;;5072808;28;20027;-80
2021/04/25 10:49:47;;;;;;;;;;;;;;;;;;5072563;28;19912;-79
2021/04/25 10:52:21;;;;;;;;;;;;;;;;;;5055481;28;19912;-80
2021/04/25 10:55:05;;;;;;;;;;;;;;;;;;5073786;28;19989;-79
2021/04/25 10:57:31;;;;;;;;;;;;;;;;;;5073547;28;19921;-80
2021/04/25 11:00:16;;;;;;;;;;;;;;;;;;5055602;28;19978;-79
2021/04/25 11:02:45;;;;;;;;;;;;;;;;;;5055061;28;19916;-79
2021/04/25 11:05:11;;;;;;;;;;;;;;;;;;5041569;28;20301;-79
2021/04/25 11:07:37;;;;;;;;;;;;;;;;;;5058696;28;19931;-80
2021/04/25 11:10:03;;;;;;;;;;;;;;;;;;5058843;28;19912;-80
2021/04/25 11:12:35;;;;;;;;;;;;;;;;;;5074881;28;20283;-80
2021/04/25 11:15:01;;;;;;;;;;;;;;;;;;5058356;28;19919;-80
2021/04/25 11:17:29;;;;;;;;;;;;;;;;;;5058652;28;19969;-80
2021/04/25 11:19:55;;;;;;;;;;;;;;;;;;5058463;28;19912;-80
2021/04/25 11:22:39;;;;;;;;;;;;;;;;;;5044080;28;19970;-80
2021/04/25 11:25:23;;;;;;;;;;;;;;;;;;5060437;28;19919;-80
2021/04/25 11:27:48;;;;;;;;;;;;;;;;;;5038338;28;20029;-80
2021/04/25 11:30:14;;;;;;;;;;;;;;;;;;5055012;28;19924;-80
2021/04/25 11:32:39;;;;;;;;;;;;;;;;;;5037819;28;19913;-80
2021/04/25 11:35:07;;;;;;;;;;;;;;;;;;5054801;28;19969;-81
2021/04/25 11:37:33;;;;;;;;;;;;;;;;;;5038330;28;19920;-81
2021/04/25 11:39:58;;;;;;;;;;;;;;;;;;5037814;28;20060;-81
2021/04/25 11:42:31;;;;;;;;;;;;;;;;;;5038090;28;19920;-80
2021/04/25 11:44:57;;;;;;;;;;;;;;;;;;5038630;28;20011;-80
2021/04/25 11:47:24;;;;;;;;;;;;;;;;;;5054251;28;19912;-80
2021/04/25 11:49:52;;;;;;;;;;;;;;;;;;5054801;28;19912;-80
2021/04/25 11:52:23;;;;;;;;;;;;;;;;;;5054967;28;19912;-81
2021/04/25 11:54:59;;;;;;;;;;;;;;;;;;5054514;28;20004;-80
2021/04/25 11:57:24;;;;;;;;;;;;;;;;;;5054747;28;19947;-80
2021/04/25 11:59:50;;;;;;;;;;;;;;;;;;5024604;28;20033;-80
2021/04/25 12:02:15;;;;;;;;;;;;;;;;;;5036694;28;19967;-79
2021/04/25 12:04:54;;;;;;;;;;;;;;;;;;5019898;28;20255;-78
2021/04/25 12:07:38;;;;;;;;;;;;;;;;;;5036999;28;19920;-79
2021/04/25 12:10:22;;;;;;;;;;;;;;;;;;5037615;28;19918;-79
2021/04/25 12:12:53;;;;;;;;;;;;;;;;;;5054232;28;19920;-78
2021/04/25 12:15:19;;;;;;;;;;;;;;;;;;5054006;28;20255;-77
2021/04/25 12:17:58;;;;;;;;;;;;;;;;;;5053980;28;19919;-78
2021/04/25 12:20:23;;;;;;;;;;;;;;;;;;5038533;28;19920;-78
2021/04/25 12:22:48;;;;;;;;;;;;;;;;;;5053605;28;19912;-78
2021/04/25 12:25:14;;;;;;;;;;;;;;;;;;5049417;28;19952;-78
2021/04/25 12:27:48;;;;;;;;;;;;;;;;;;5070947;28;19913;-77
2021/04/25 12:30:29;;;;;;;;;;;;;;;;;;5071696;28;19912;-78
2021/04/25 12:33:04;;;;;;;;;;;;;;;;;;5070520;28;19917;-78
2021/04/25 12:35:30;;;;;;;;;;;;;;;;;;5071918;28;20003;-78
2021/04/25 12:37:55;;;;;;;;;;;;;;;;;;5053421;28;19917;-78
2021/04/25 12:40:33;;;;;;;;;;;;;;;;;;5037149;28;19916;-77
2021/04/25 12:43:05;;;;;;;;;;;;;;;;;;5053026;28;19923;-77
2021/04/25 12:45:30;;;;;;;;;;;;;;;;;;5020464;28;19913;-78
2021/04/25 12:47:56;;;;;;;;;;;;;;;;;;5039466;28;19920;-78
2021/04/25 12:50:21;;;;;;;;;;;;;;;;;;5061244;28;19924;-78
2021/04/25 12:52:46;;;;;;;;;;;;;;;;;;5089703;28;20366;-78
2021/04/25 12:55:23;;;;;;;;;;;;;;;;;;5061068;28;19966;-78
2021/04/25 12:57:48;;;;;;;;;;;;;;;;;;5073739;28;19912;-78
2021/04/25 13:00:26;;;;;;;;;;;;;;;;;;5075779;28;19926;-78
2021/04/25 13:02:51;;;;;;;;;;;;;;;;;;5054939;28;19916;-78
2021/04/25 13:05:17;;;;;;;;;;;;;;;;;;5060201;28;20025;-78
2021/04/25 13:07:44;;;;;;;;;;;;;;;;;;5073453;28;19923;-78
2021/04/25 13:10:10;;;;;;;;;;;;;;;;;;5074047;28;19913;-78
2021/04/25 13:12:36;;;;;;;;;;;;;;;;;;5056960;28;19912;-78
2021/04/25 13:15:07;;;;;;;;;;;;;;;;;;5056618;28;20338;-78
2021/04/25 13:17:33;;;;;;;;;;;;;;;;;;5057370;28;19986;-78
2021/04/25 13:19:59;;;;;;;;;;;;;;;;;;5055970;28;19920;-78
2021/04/25 13:22:25;;;;;;;;;;;;;;;;;;5071080;28;20408;-78
2021/04/25 13:24:50;;;;;;;;;;;;;;;;;;5043971;28;19920;-78
2021/04/25 13:27:17;;;;;;;;;;;;;;;;;;5047525;28;19916;-77
2021/04/25 13:29:43;;;;;;;;;;;;;;;;;;5031699;28;20375;-78
2021/04/25 13:32:08;;;;;;;;;;;;;;;;;;5036948;28;19920;-78
2021/04/25 13:34:33;;;;;;;;;;;;;;;;;;5036579;28;19913;-78
2021/04/25 13:36:59;;;;;;;;;;;;;;;;;;5039635;28;19916;-78
2021/04/25 13:39:24;;;;;;;;;;;;;;;;;;5039590;28;20397;-78
2021/04/25 13:41:49;;;;;;;;;;;;;;;;;;5060450;28;19923;-77
2021/04/25 13:44:14;;;;;;;;;;;;;;;;;;5066430;28;20028;-77
2021/04/25 13:46:40;;;;;;;;;;;;;;;;;;5076739;28;20389;-78
2021/04/25 13:49:05;;;;;;;;;;;;;;;;;;5073205;28;19912;-77
2021/04/25 13:51:37;;;;;;;;;;;;;;;;;;5093531;28;19912;-77
2021/04/25 13:54:02;;;;;;;;;;;;;;;;;;5093483;28;19927;-78
2021/04/25 13:56:27;;;;;;;;;;;;;;;;;;5093123;28;19912;-77
2021/04/25 13:58:53;;;;;;;;;;;;;;;;;;5093096;28;20289;-77
2021/04/25 14:01:19;;;;;;;;;;;;;;;;;;5062963;28;19912;-77
2021/04/25 14:03:44;;;;;;;;;;;;;;;;;;5059780;28;19912;-78
2021/04/25 14:06:09;;;;;;;;;;;;;;;;;;5059595;28;19923;-78
2021/04/25 14:08:35;;;;;;;;;;;;;;;;;;5059535;28;20408;-78
2021/04/25 14:11:01;;;;;;;;;;;;;;;;;;5042823;28;19977;-78
2021/04/25 14:13:27;;;;;;;;;;;;;;;;;;5074062;28;20004;-78
2021/04/25 14:15:53;;;;;;;;;;;;;;;;;;5039871;28;19939;-77
2021/04/25 14:18:18;;;;;;;;;;;;;;;;;;5039456;28;19912;-77
2021/04/25 14:20:43;;;;;;;;;;;;;;;;;;5045241;28;19913;-77
2021/04/25 14:23:09;;;;;;;;;;;;;;;;;;5094424;28;19912;-77
2021/04/25 14:25:34;;;;;;;;;;;;;;;;;;5075278;28;19999;-77
2021/04/25 14:27:59;;;;;;;;;;;;;;;;;;5039205;28;19916;-77
2021/04/25 14:30:25;;;;;;;;;;;;;;;;;;5056532;28;20057;-78
2021/04/25 14:32:51;;;;;;;;;;;;;;;;;;5055985;28;19916;-77
2021/04/25 14:35:17;;;;;;;;;;;;;;;;;;5038983;28;19920;-77
2021/04/25 14:37:42;;;;;;;;;;;;;;;;;;5038966;28;19916;-77
2021/04/25 14:40:09;;;;;;;;;;;;;;;;;;5055466;28;19913;-78
2021/04/25 14:42:34;;;;;;;;;;;;;;;;;;5055183;28;19940;-78
2021/04/25 14:44:59;;;;;;;;;;;;;;;;;;5055381;28;20017;-78
2021/04/25 14:47:24;;;;;;;;;;;;;;;;;;5054752;28;19920;-78
2021/04/25 14:49:50;;;;;;;;;;;;;;;;;;5055519;28;19918;-77
2021/04/25 14:52:15;;;;;;;;;;;;;;;;;;5059629;28;20325;-78
2021/04/25 14:54:40;;;;;;;;;;;;;;;;;;5055342;28;19920;-77
2021/04/25 14:57:06;;;;;;;;;;;;;;;;;;5054988;28;19955;-77
2021/04/25 14:59:31;;;;;;;;;;;;;;;;;;5055192;28;19956;-77
2021/04/25 15:01:56;;;;;;;;;;;;;;;;;;5038415;28;20011;-77
2021/04/25 15:04:21;;;;;;;;;;;;;;;;;;5055458;28;19919;-77
2021/04/25 15:06:46;;;;;;;;;;;;;;;;;;5038386;28;19963;-77
2021/04/25 15:09:12;;;;;;;;;;;;;;;;;;5054945;28;19917;-78
2021/04/25 15:11:37;;;;;;;;;;;;;;;;;;5054567;28;19944;-78
2021/04/25 15:14:02;;;;;;;;;;;;;;;;;;5055426;28;19916;-79
2021/04/25 15:16:28;;;;;;;;;;;;;;;;;;5038577;28;19912;-79
2021/04/25 15:18:53;;;;;;;;;;;;;;;;;;5021715;28;19916;-79
2021/04/25 15:21:18;;;;;;;;;;;;;;;;;;5021783;28;19990;-79
2021/04/25 15:23:44;;;;;;;;;;;;;;;;;;5058659;28;19912;-80
2021/04/25 15:26:09;;;;;;;;;;;;;;;;;;5057336;28;19919;-80
2021/04/25 15:28:34;;;;;;;;;;;;;;;;;;5046611;28;19965;-80
2021/04/25 15:31:01;;;;;;;;;;;;;;;;;;5054589;28;19963;-80
2021/04/25 15:33:26;;;;;;;;;;;;;;;;;;5038252;28;20259;-79
2021/04/25 15:35:53;;;;;;;;;;;;;;;;;;5038193;28;19923;-79
2021/04/25 15:38:18;;;;;;;;;;;;;;;;;;5038115;28;19921;-79
2021/04/25 15:40:44;;;;;;;;;;;;;;;;;;5037442;28;19912;-79
2021/04/25 15:43:09;;;;;;;;;;;;;;;;;;5064399;28;19912;-79
2021/04/25 15:45:41;;;;;;;;;;;;;;;;;;5053557;28;19938;-79
2021/04/25 15:48:07;;;;;;;;;;;;;;;;;;5074474;28;19916;-80
2021/04/25 15:50:32;;;;;;;;;;;;;;;;;;5058401;28;19912;-80
2021/04/25 15:52:58;;;;;;;;;;;;;;;;;;5057710;28;19923;-80
2021/04/25 15:55:23;;;;;;;;;;;;;;;;;;5053926;28;19923;-80
2021/04/25 15:57:48;;;;;;;;;;;;;;;;;;5037529;28;19919;-79
2021/04/25 16:00:14;;;;;;;;;;;;;;;;;;5037382;28;19916;-79
2021/04/25 16:02:40;;;;;;;;;;;;;;;;;;5054502;28;19913;-79
2021/04/25 16:05:05;;;;;;;;;;;;;;;;;;5054223;28;20003;-78
2021/04/25 16:07:31;;;;;;;;;;;;;;;;;;5037430;28;20011;-79
2021/04/25 16:09:56;;;;;;;;;;;;;;;;;;5037227;28;19956;-79
2021/04/25 16:12:24;;;;;;;;;;;;;;;;;;5037257;28;19931;-79
2021/04/25 16:14:50;;;;;;;;;;;;;;;;;;5038094;28;19913;-80
2021/04/25 16:17:15;;;;;;;;;;;;;;;;;;5037544;28;19912;-79
2021/04/25 16:19:40;;;;;;;;;;;;;;;;;;5037853;28;19916;-79
2021/04/25 16:22:06;;;;;;;;;;;;;;;;;;5048957;28;19916;-79
2021/04/25 16:24:31;;;;;;;;;;;;;;;;;;5063777;28;19916;-78
2021/04/25 16:26:56;;;;;;;;;;;;;;;;;;5057470;28;19916;-79
2021/04/25 16:29:22;;;;;;;;;;;;;;;;;;5057275;28;19994;-78
2021/04/25 16:31:47;;;;;;;;;;;;;;;;;;5057029;28;19912;-78
2021/04/25 16:34:12;;;;;;;;;;;;;;;;;;5040802;28;19919;-78
2021/04/25 16:36:39;;;;;;;;;;;;;;;;;;5057080;28;19923;-78
2021/04/25 16:39:05;;;;;;;;;;;;;;;;;;5072139;28;19920;-78
2021/04/25 16:41:30;;;;;;;;;;;;;;;;;;5040658;28;19923;-78